Time;durP1;ratioP1;P1;durP2;ratioP2;P2;SDS_P1;SDS_P2;PMS_P1;PMS_P2;Temp;Humidity;BMP_temperature;BMP_pressure;BME280_temperature;BME280_humidity;BME280_pressure;Samples;Min_cycle;Max_cycle;Signal;HPM_P1;HPM_P2
2024/01/14 00:02:17;;;;;;;11.30;2.03;;;;;;;;;;4968059;28;20058;-67
2024/01/14 00:04:44;;;;;;;11.15;2.45;;;;;;;;;;4975237;28;20042;-67
2024/01/14 00:07:10;;;;;;;14.18;2.08;;;;;;;;;;4988216;28;20452;-67
2024/01/14 00:09:36;;;;;;;16.75;2.22;;;;;;;;;;4974562;28;20047;-67
2024/01/14 00:12:02;;;;;;;14.68;2.33;;;;;;;;;;4951699;28;20100;-67
2024/01/14 00:14:28;;;;;;;8.52;1.60;;;;;;;;;;4977411;28;20038;-67
2024/01/14 00:16:54;;;;;;;11.57;1.80;;;;;;;;;;4978544;28;20042;-67
2024/01/14 00:19:20;;;;;;;12.25;1.98;;;;;;;;;;4975811;28;20042;-67
2024/01/14 00:21:46;;;;;;;9.88;1.77;;;;;;;;;;4962955;28;20090;-67
2024/01/14 00:24:12;;;;;;;10.88;1.70;;;;;;;;;;4970103;28;20407;-67
2024/01/14 00:26:38;;;;;;;13.85;1.73;;;;;;;;;;4960563;28;20046;-67
2024/01/14 00:29:04;;;;;;;24.50;2.60;;;;;;;;;;4971562;28;20544;-67
2024/01/14 00:31:30;;;;;;;10.93;1.77;;;;;;;;;;4987997;28;20043;-67
2024/01/14 00:33:56;;;;;;;9.20;1.75;;;;;;;;;;4970865;28;20047;-67
2024/01/14 00:36:22;;;;;;;11.10;2.10;;;;;;;;;;4953785;28;20165;-67
2024/01/14 00:38:48;;;;;;;16.20;2.00;;;;;;;;;;4987570;28;20460;-67
2024/01/14 00:41:15;;;;;;;10.05;1.70;;;;;;;;;;4959584;28;20622;-67
2024/01/14 00:43:41;;;;;;;11.93;2.17;;;;;;;;;;4968294;28;20058;-67
2024/01/14 00:46:07;;;;;;;17.38;2.40;;;;;;;;;;4967773;28;20039;-67
2024/01/14 00:48:33;;;;;;;12.35;1.50;;;;;;;;;;4967798;28;20042;-67
2024/01/14 00:50:59;;;;;;;10.60;1.55;;;;;;;;;;4968256;28;20138;-67
2024/01/14 00:53:25;;;;;;;13.13;2.10;;;;;;;;;;4975109;28;20047;-67
2024/01/14 00:55:51;;;;;;;11.25;1.88;;;;;;;;;;4967112;28;20049;-67
2024/01/14 00:58:17;;;;;;;13.23;1.88;;;;;;;;;;4986386;28;20035;-67
2024/01/14 01:00:43;;;;;;;10.07;1.55;;;;;;;;;;4981879;28;20041;-67
2024/01/14 01:03:09;;;;;;;11.98;2.17;;;;;;;;;;4968193;28;20142;-67
2024/01/14 01:05:35;;;;;;;14.98;1.88;;;;;;;;;;4942944;28;20157;-67
2024/01/14 01:08:02;;;;;;;10.07;1.58;;;;;;;;;;4967797;28;20277;-67
2024/01/14 01:10:28;;;;;;;15.35;1.90;;;;;;;;;;4986728;28;20049;-67
2024/01/14 01:12:54;;;;;;;15.65;1.98;;;;;;;;;;4970793;28;20039;-67
2024/01/14 01:15:20;;;;;;;12.65;1.83;;;;;;;;;;4950620;28;20130;-67
2024/01/14 01:17:46;;;;;;;13.27;2.05;;;;;;;;;;4967987;28;20034;-67
2024/01/14 01:20:12;;;;;;;13.55;2.50;;;;;;;;;;4967849;28;20049;-67
2024/01/14 01:22:38;;;;;;;12.07;1.30;;;;;;;;;;4987342;28;20043;-67
2024/01/14 01:25:04;;;;;;;8.98;1.35;;;;;;;;;;4962464;28;20501;-67
2024/01/14 01:27:30;;;;;;;6.45;1.42;;;;;;;;;;4971396;28;20050;-67
2024/01/14 01:29:57;;;;;;;9.18;1.30;;;;;;;;;;4971384;28;20100;-67
2024/01/14 01:32:23;;;;;;;10.20;1.83;;;;;;;;;;4970905;28;20039;-67
2024/01/14 01:34:49;;;;;;;13.32;1.40;;;;;;;;;;4971529;28;20049;-67
2024/01/14 01:37:15;;;;;;;11.30;1.48;;;;;;;;;;4970826;28;20078;-67
2024/01/14 01:39:42;;;;;;;10.50;1.67;;;;;;;;;;4969791;28;20039;-67
2024/01/14 01:42:08;;;;;;;10.65;1.85;;;;;;;;;;4971242;28;20046;-67
2024/01/14 01:44:34;;;;;;;7.88;1.52;;;;;;;;;;4970550;28;20098;-67
2024/01/14 01:47:00;;;;;;;7.97;1.17;;;;;;;;;;4971526;28;20034;-67
2024/01/14 01:49:27;;;;;;;8.30;1.20;;;;;;;;;;4970329;28;20034;-67
2024/01/14 01:51:53;;;;;;;14.20;1.58;;;;;;;;;;4954266;28;20126;-67
2024/01/14 01:54:22;;;;;;;8.68;1.60;;;;;;;;;;4970286;28;20616;-67
2024/01/14 01:56:49;;;;;;;13.23;2.03;;;;;;;;;;4970794;28;20412;-67
2024/01/14 01:59:15;;;;;;;14.05;1.67;;;;;;;;;;4970596;28;20070;-67
2024/01/14 02:01:41;;;;;;;16.77;1.63;;;;;;;;;;4971000;28;20058;-67
2024/01/14 02:04:07;;;;;;;15.55;1.73;;;;;;;;;;4953014;28;20057;-67
2024/01/14 02:06:33;;;;;;;12.65;1.65;;;;;;;;;;4989242;28;20042;-67
2024/01/14 02:09:00;;;;;;;15.60;1.75;;;;;;;;;;4984592;28;20478;-67
2024/01/14 02:11:26;;;;;;;10.07;1.63;;;;;;;;;;4975073;28;20038;-67
2024/01/14 02:13:52;;;;;;;15.25;1.85;;;;;;;;;;4979355;28;20212;-67
2024/01/14 02:16:20;;;;;;;14.75;1.65;;;;;;;;;;4970611;28;20066;-67
2024/01/14 02:18:46;;;;;;;10.15;1.73;;;;;;;;;;4990320;28;20042;-67
2024/01/14 02:21:15;;;;;;;16.02;1.73;;;;;;;;;;4986379;28;20045;-67
2024/01/14 02:23:43;;;;;;;11.30;1.70;;;;;;;;;;4990134;28;20038;-67
2024/01/14 02:26:09;;;;;;;12.98;1.60;;;;;;;;;;4982908;28;20038;-67
2024/01/14 02:28:35;;;;;;;12.40;1.95;;;;;;;;;;4978417;28;20046;-67
2024/01/14 02:31:01;;;;;;;15.13;1.52;;;;;;;;;;4969183;28;20051;-67
2024/01/14 02:33:27;;;;;;;12.68;1.85;;;;;;;;;;4978993;28;20046;-67
2024/01/14 02:35:53;;;;;;;13.93;1.77;;;;;;;;;;4988805;28;20035;-67
2024/01/14 02:38:19;;;;;;;16.35;2.00;;;;;;;;;;4973290;28;20035;-67
2024/01/14 02:40:45;;;;;;;10.60;1.50;;;;;;;;;;4972992;28;20085;-67
2024/01/14 02:43:11;;;;;;;12.00;2.20;;;;;;;;;;4982974;28;20093;-67
2024/01/14 02:45:37;;;;;;;12.07;1.70;;;;;;;;;;4969984;28;20326;-67
2024/01/14 02:48:03;;;;;;;23.35;2.20;;;;;;;;;;4970028;28;20042;-67
2024/01/14 02:50:29;;;;;;;9.40;1.67;;;;;;;;;;4969477;28;20246;-67
2024/01/14 02:52:55;;;;;;;7.22;1.52;;;;;;;;;;4971770;28;20050;-67
2024/01/14 02:55:21;;;;;;;18.50;2.00;;;;;;;;;;4971430;28;20535;-67
2024/01/14 02:57:48;;;;;;;14.45;1.92;;;;;;;;;;4978439;28;20042;-67
2024/01/14 03:00:15;;;;;;;15.50;2.13;;;;;;;;;;4969672;28;20038;-67
2024/01/14 03:02:41;;;;;;;18.88;2.17;;;;;;;;;;4969698;28;20369;-67
2024/01/14 03:05:07;;;;;;;13.30;1.65;;;;;;;;;;4972496;28;20038;-67
2024/01/14 03:07:33;;;;;;;11.13;1.65;;;;;;;;;;4972024;28;20687;-67
2024/01/14 03:09:59;;;;;;;13.02;2.25;;;;;;;;;;4977143;28;20043;-67
2024/01/14 03:12:25;;;;;;;14.93;1.90;;;;;;;;;;4961680;28;20053;-67
2024/01/14 03:14:51;;;;;;;20.70;2.67;;;;;;;;;;4969825;28;20043;-67
2024/01/14 03:17:17;;;;;;;15.90;1.95;;;;;;;;;;4969423;28;20405;-67
2024/01/14 03:19:43;;;;;;;11.88;1.52;;;;;;;;;;4968944;28;20039;-67
2024/01/14 03:22:09;;;;;;;14.18;1.85;;;;;;;;;;4982209;28;20101;-67
2024/01/14 03:24:35;;;;;;;16.58;1.90;;;;;;;;;;4988873;28;20493;-67
2024/01/14 03:27:01;;;;;;;13.43;2.35;;;;;;;;;;4983841;28;20038;-67
2024/01/14 03:29:27;;;;;;;9.55;1.58;;;;;;;;;;4956407;28;20046;-67
2024/01/14 03:31:53;;;;;;;14.45;1.80;;;;;;;;;;4968293;28;20405;-67
2024/01/14 03:34:19;;;;;;;15.13;1.50;;;;;;;;;;4982560;28;20039;-67
2024/01/14 03:36:45;;;;;;;14.55;1.95;;;;;;;;;;4987373;28;20049;-67
2024/01/14 03:39:11;;;;;;;13.98;1.85;;;;;;;;;;4951349;28;20066;-67
2024/01/14 03:41:37;;;;;;;11.68;1.98;;;;;;;;;;4968668;28;20054;-67
2024/01/14 03:44:03;;;;;;;12.68;1.60;;;;;;;;;;4969252;28;20043;-67
2024/01/14 03:46:29;;;;;;;12.32;2.17;;;;;;;;;;4968061;28;20062;-67
2024/01/14 03:48:55;;;;;;;15.57;2.13;;;;;;;;;;4970423;28;20413;-67
2024/01/14 03:51:21;;;;;;;15.80;2.15;;;;;;;;;;4987735;28;20042;-67
2024/01/14 03:53:47;;;;;;;14.52;2.20;;;;;;;;;;4979461;28;20065;-67
2024/01/14 03:56:13;;;;;;;13.52;2.10;;;;;;;;;;4951637;28;20042;-67
2024/01/14 03:58:39;;;;;;;12.15;1.98;;;;;;;;;;4968548;28;20039;-67
2024/01/14 04:01:05;;;;;;;20.35;2.95;;;;;;;;;;4968749;28;20035;-67
2024/01/14 04:03:31;;;;;;;15.38;2.05;;;;;;;;;;4951320;28;20069;-67
2024/01/14 04:05:58;;;;;;;8.90;2.08;;;;;;;;;;4967687;28;20058;-67
2024/01/14 04:08:24;;;;;;;12.57;1.85;;;;;;;;;;4968909;28;20464;-67
2024/01/14 04:10:50;;;;;;;16.55;2.03;;;;;;;;;;4968214;28;20410;-67
2024/01/14 04:13:16;;;;;;;15.77;2.03;;;;;;;;;;4977485;28;20070;-67
2024/01/14 04:15:42;;;;;;;13.63;2.30;;;;;;;;;;4968712;28;20053;-67
2024/01/14 04:18:09;;;;;;;11.98;1.83;;;;;;;;;;4950918;28;20046;-67
2024/01/14 04:20:35;;;;;;;10.00;1.55;;;;;;;;;;4967895;28;20042;-67
2024/01/14 04:23:01;;;;;;;16.92;2.17;;;;;;;;;;4968608;28;20050;-67
2024/01/14 04:25:27;;;;;;;19.55;1.85;;;;;;;;;;4972540;28;20534;-67
2024/01/14 04:27:53;;;;;;;11.98;1.70;;;;;;;;;;4982319;28;20050;-67
2024/01/14 04:30:19;;;;;;;12.73;2.67;;;;;;;;;;4967514;28;20640;-67
2024/01/14 04:32:45;;;;;;;9.18;1.70;;;;;;;;;;4951103;28;20039;-67
2024/01/14 04:35:11;;;;;;;11.05;1.90;;;;;;;;;;4968058;28;20043;-67
2024/01/14 04:37:37;;;;;;;13.02;1.88;;;;;;;;;;4971122;28;20060;-67
2024/01/14 04:40:03;;;;;;;16.50;1.75;;;;;;;;;;4987657;28;20049;-67
2024/01/14 04:42:29;;;;;;;12.65;2.30;;;;;;;;;;4975459;28;20035;-67
2024/01/14 04:44:55;;;;;;;11.57;1.73;;;;;;;;;;4950730;28;20057;-67
2024/01/14 04:47:21;;;;;;;6.88;1.45;;;;;;;;;;4967896;28;20405;-67
2024/01/14 04:49:47;;;;;;;16.98;1.77;;;;;;;;;;4967937;28;20054;-67
2024/01/14 04:52:13;;;;;;;12.85;2.05;;;;;;;;;;4968304;28;20034;-67
2024/01/14 04:54:39;;;;;;;17.73;1.85;;;;;;;;;;4960599;28;20441;-67
2024/01/14 04:57:05;;;;;;;12.68;1.70;;;;;;;;;;4967346;28;20054;-67
2024/01/14 04:59:31;;;;;;;15.70;1.75;;;;;;;;;;4968100;28;20039;-67
2024/01/14 05:01:57;;;;;;;11.85;2.00;;;;;;;;;;4970938;28;20086;-67
2024/01/14 05:04:23;;;;;;;11.32;1.48;;;;;;;;;;4970748;28;20544;-67
2024/01/14 05:06:49;;;;;;;14.52;2.05;;;;;;;;;;4971924;28;20042;-67
2024/01/14 05:09:15;;;;;;;15.88;2.00;;;;;;;;;;4971414;28;20481;-67
2024/01/14 05:11:41;;;;;;;17.73;1.73;;;;;;;;;;4978475;28;20445;-67
2024/01/14 05:14:07;;;;;;;8.18;1.20;;;;;;;;;;4974170;28;20081;-67
2024/01/14 05:16:33;;;;;;;11.73;1.73;;;;;;;;;;4971906;28;20517;-67
2024/01/14 05:18:59;;;;;;;10.18;1.10;;;;;;;;;;4971238;28;20038;-67
2024/01/14 05:21:25;;;;;;;10.85;1.27;;;;;;;;;;4973842;28;20037;-67
2024/01/14 05:23:51;;;;;;;9.90;1.48;;;;;;;;;;4991429;28;20472;-67
2024/01/14 05:26:17;;;;;;;8.52;2.15;;;;;;;;;;4990916;28;20050;-67
2024/01/14 05:28:43;;;;;;;7.03;1.30;;;;;;;;;;4978436;28;20043;-67
2024/01/14 05:31:09;;;;;;;10.88;1.77;;;;;;;;;;4953848;28;20082;-67
2024/01/14 05:33:35;;;;;;;7.95;1.27;;;;;;;;;;4971573;28;20433;-67
2024/01/14 05:36:01;;;;;;;7.90;1.42;;;;;;;;;;4971329;28;20042;-67
2024/01/14 05:38:27;;;;;;;9.25;1.25;;;;;;;;;;4970953;28;20043;-67
2024/01/14 05:40:53;;;;;;;7.85;1.38;;;;;;;;;;4970862;28;20046;-67
2024/01/14 05:43:19;;;;;;;10.02;1.17;;;;;;;;;;4971215;28;20043;-67
2024/01/14 05:45:45;;;;;;;10.15;1.25;;;;;;;;;;4971353;28;20324;-67
2024/01/14 05:48:12;;;;;;;10.88;1.38;;;;;;;;;;4953453;28;20042;-67
2024/01/14 05:50:38;;;;;;;11.35;1.75;;;;;;;;;;4970981;28;20057;-67
2024/01/14 05:53:04;;;;;;;6.40;1.20;;;;;;;;;;4971156;28;20612;-67
2024/01/14 05:55:30;;;;;;;8.48;1.30;;;;;;;;;;4972524;28;20046;-67
2024/01/14 05:57:56;;;;;;;10.98;1.35;;;;;;;;;;4984307;28;20405;-67
2024/01/14 06:00:23;;;;;;;8.98;1.42;;;;;;;;;;4970669;28;20097;-67
2024/01/14 06:02:49;;;;;;;8.32;1.52;;;;;;;;;;4971039;28;20365;-67
2024/01/14 06:05:15;;;;;;;12.48;1.27;;;;;;;;;;4971050;28;20198;-67
2024/01/14 06:07:41;;;;;;;8.65;1.50;;;;;;;;;;4970914;28;20039;-67
2024/01/14 06:10:09;;;;;;;7.68;1.70;;;;;;;;;;4970121;28;20069;-67
2024/01/14 06:12:35;;;;;;;12.73;1.60;;;;;;;;;;4978996;28;20125;-67
2024/01/14 06:15:01;;;;;;;8.88;1.38;;;;;;;;;;4970889;28;20600;-67
2024/01/14 06:17:27;;;;;;;8.60;1.30;;;;;;;;;;4970490;28;20049;-67
2024/01/14 06:19:53;;;;;;;12.15;1.35;;;;;;;;;;4970581;28;20389;-67
2024/01/14 06:22:19;;;;;;;7.00;1.30;;;;;;;;;;4981769;28;20122;-67
2024/01/14 06:24:45;;;;;;;12.63;1.85;;;;;;;;;;4970215;28;20146;-67
2024/01/14 06:27:11;;;;;;;8.05;1.70;;;;;;;;;;4971406;28;20053;-67
2024/01/14 06:29:37;;;;;;;10.68;1.17;;;;;;;;;;4969804;28;20077;-67
2024/01/14 06:32:03;;;;;;;9.50;1.63;;;;;;;;;;4952826;28;20332;-67
2024/01/14 06:34:29;;;;;;;7.97;1.30;;;;;;;;;;4970723;28;20050;-67
2024/01/14 06:36:55;;;;;;;9.85;1.58;;;;;;;;;;4970251;28;20413;-67
2024/01/14 06:39:21;;;;;;;9.23;2.13;;;;;;;;;;4985499;28;20042;-67
2024/01/14 06:41:47;;;;;;;10.60;1.77;;;;;;;;;;4986423;28;20049;-67
2024/01/14 06:44:13;;;;;;;8.35;1.42;;;;;;;;;;4970409;28;20125;-67
2024/01/14 06:46:45;;;;;;;11.35;1.60;;;;;;;;;;4979922;28;20046;-67
2024/01/14 06:49:11;;;;;;;17.83;1.85;;;;;;;;;;4976826;28;20039;-67
2024/01/14 06:51:44;;;;;;;10.73;1.77;;;;;;;;;;4969748;28;20082;-67
2024/01/14 06:54:10;;;;;;;9.73;1.52;;;;;;;;;;4975693;28;20050;-67
2024/01/14 06:56:46;;;;;;;9.82;1.35;;;;;;;;;;4989676;28;20045;-67
2024/01/14 06:59:13;;;;;;;18.88;2.13;;;;;;;;;;4974936;28;20075;-67
2024/01/14 07:01:39;;;;;;;13.80;1.42;;;;;;;;;;4969504;28;20302;-67
2024/01/14 07:04:05;;;;;;;10.60;1.80;;;;;;;;;;4969897;28;20520;-67
2024/01/14 07:06:31;;;;;;;14.32;1.60;;;;;;;;;;4978359;28;20046;-67
2024/01/14 07:08:57;;;;;;;12.55;1.55;;;;;;;;;;4988585;28;20046;-67
2024/01/14 07:11:23;;;;;;;15.20;1.35;;;;;;;;;;4973845;28;20089;-67
2024/01/14 07:13:49;;;;;;;6.60;1.20;;;;;;;;;;4954585;28;20035;-67
2024/01/14 07:16:15;;;;;;;5.95;1.63;;;;;;;;;;4989038;28;20039;-67
2024/01/14 07:18:41;;;;;;;14.07;1.42;;;;;;;;;;4979206;28;20513;-67
2024/01/14 07:21:10;;;;;;;9.73;1.42;;;;;;;;;;4968695;28;20125;-67
2024/01/14 07:23:37;;;;;;;5.82;1.17;;;;;;;;;;4968916;28;20058;-67
2024/01/14 07:26:05;;;;;;;7.07;1.40;;;;;;;;;;4972638;28;20042;-67
2024/01/14 07:28:31;;;;;;;6.63;0.98;;;;;;;;;;4969389;28;20425;-67
2024/01/14 07:30:57;;;;;;;6.57;1.35;;;;;;;;;;4959001;28;20410;-67
2024/01/14 07:33:23;;;;;;;9.40;1.30;;;;;;;;;;4969336;28;20663;-67
2024/01/14 07:35:49;;;;;;;12.25;1.67;;;;;;;;;;4969010;28;20077;-67
2024/01/14 07:38:15;;;;;;;6.05;1.17;;;;;;;;;;4974368;28;20042;-66
2024/01/14 07:40:41;;;;;;;9.48;1.30;;;;;;;;;;4988013;28;20045;-66
2024/01/14 07:43:08;;;;;;;6.32;1.10;;;;;;;;;;4976361;28;20309;-66
2024/01/14 07:45:34;;;;;;;9.25;1.90;;;;;;;;;;4969509;28;20047;-66
2024/01/14 07:48:01;;;;;;;9.43;1.33;;;;;;;;;;4968706;28;20560;-66
2024/01/14 07:50:27;;;;;;;8.27;1.10;;;;;;;;;;4967951;28;20133;-66
2024/01/14 07:52:53;;;;;;;9.20;1.30;;;;;;;;;;4968496;28;20205;-66
2024/01/14 07:55:19;;;;;;;6.97;1.35;;;;;;;;;;4968342;28;20034;-66
2024/01/14 07:57:45;;;;;;;8.23;1.50;;;;;;;;;;4951433;28;20476;-66
2024/01/14 08:00:12;;;;;;;9.70;1.73;;;;;;;;;;4968580;28;20086;-66
2024/01/14 08:02:38;;;;;;;7.43;1.52;;;;;;;;;;4951381;28;20061;-66
2024/01/14 08:05:04;;;;;;;20.70;3.45;;;;;;;;;;4968521;28;20050;-66
2024/01/14 08:07:30;;;;;;;17.38;5.60;;;;;;;;;;4968030;28;20133;-66
2024/01/14 08:09:59;;;;;;;27.75;7.05;;;;;;;;;;4967624;28;20077;-66
2024/01/14 08:12:25;;;;;;;14.73;4.43;;;;;;;;;;4968281;28;20046;-66
2024/01/14 08:14:50;;;;;;;14.65;5.20;;;;;;;;;;4956745;28;20271;-66
2024/01/14 08:17:16;;;;;;;18.38;7.28;;;;;;;;;;4968619;28;20043;-66
2024/01/14 08:19:42;;;;;;;9.98;2.70;;;;;;;;;;4967489;28;20049;-66
2024/01/14 08:22:09;;;;;;;10.07;2.85;;;;;;;;;;4968672;28;20378;-66
2024/01/14 08:24:35;;;;;;;12.48;3.78;;;;;;;;;;4968419;28;20642;-66
2024/01/14 08:27:01;;;;;;;12.68;3.80;;;;;;;;;;4973089;28;20035;-66
2024/01/14 08:29:27;;;;;;;10.43;2.60;;;;;;;;;;4968347;28;20051;-66
2024/01/14 08:31:53;;;;;;;8.57;1.63;;;;;;;;;;4967586;28;20515;-66
2024/01/14 08:34:19;;;;;;;10.25;2.08;;;;;;;;;;4967849;28;20490;-66
2024/01/14 08:36:45;;;;;;;6.80;1.85;;;;;;;;;;4968545;28;20130;-66
2024/01/14 08:39:11;;;;;;;7.00;1.63;;;;;;;;;;4967559;28;20585;-66
2024/01/14 08:41:37;;;;;;;13.52;2.08;;;;;;;;;;4968044;28;20050;-66
2024/01/14 08:44:06;;;;;;;6.55;1.58;;;;;;;;;;4968450;28;20369;-66
2024/01/14 08:46:34;;;;;;;11.35;1.60;;;;;;;;;;4967824;28;20050;-67
2024/01/14 08:49:00;;;;;;;8.57;1.30;;;;;;;;;;4968064;28;20408;-67
2024/01/14 08:51:25;;;;;;;6.65;1.35;;;;;;;;;;4967847;28;20035;-67
2024/01/14 08:53:52;;;;;;;5.68;1.10;;;;;;;;;;4967663;28;20057;-67
2024/01/14 08:56:18;;;;;;;5.07;1.00;;;;;;;;;;4968267;28;20121;-67
2024/01/14 08:58:44;;;;;;;8.35;1.40;;;;;;;;;;4967665;28;20069;-67
2024/01/14 09:01:10;;;;;;;7.28;1.25;;;;;;;;;;4966326;28;20465;-67
2024/01/14 09:03:36;;;;;;;8.15;1.17;;;;;;;;;;4968030;28;20089;-67
2024/01/14 09:06:02;;;;;;;7.35;1.75;;;;;;;;;;4967844;28;20042;-67
2024/01/14 09:08:28;;;;;;;8.07;2.03;;;;;;;;;;4967176;28;20051;-67
2024/01/14 09:10:54;;;;;;;6.45;1.40;;;;;;;;;;4974781;28;20126;-67
2024/01/14 09:13:20;;;;;;;13.57;2.00;;;;;;;;;;4967821;28;20070;-67
2024/01/14 09:15:46;;;;;;;8.25;1.38;;;;;;;;;;4968486;28;20039;-67
2024/01/14 09:18:12;;;;;;;4.07;1.65;;;;;;;;;;4967458;28;20403;-67
2024/01/14 09:20:38;;;;;;;6.82;1.50;;;;;;;;;;4967727;28;20039;-67
2024/01/14 09:23:04;;;;;;;7.28;1.25;;;;;;;;;;4976664;28;20406;-67
2024/01/14 09:25:30;;;;;;;4.00;1.13;;;;;;;;;;4984202;28;20225;-67
2024/01/14 09:27:56;;;;;;;5.85;1.42;;;;;;;;;;4968044;28;20066;-67
2024/01/14 09:30:22;;;;;;;6.63;1.50;;;;;;;;;;4967366;28;20067;-67
2024/01/14 09:32:48;;;;;;;6.85;1.20;;;;;;;;;;4967307;28;20046;-67
2024/01/14 09:35:14;;;;;;;5.72;1.25;;;;;;;;;;4967550;28;20441;-67
2024/01/14 09:37:40;;;;;;;5.60;1.10;;;;;;;;;;4968256;28;20035;-67
2024/01/14 09:40:06;;;;;;;3.47;0.90;;;;;;;;;;4984034;28;20096;-67
2024/01/14 09:42:39;;;;;;;2.80;0.77;;;;;;;;;;4965026;28;20042;-67
2024/01/14 09:45:05;;;;;;;4.32;0.80;;;;;;;;;;4967698;28;20093;-67
2024/01/14 09:47:35;;;;;;;4.32;0.90;;;;;;;;;;4982280;28;20035;-67
2024/01/14 09:50:01;;;;;;;4.47;0.70;;;;;;;;;;4970966;28;20097;-67
2024/01/14 09:52:30;;;;;;;3.35;1.08;;;;;;;;;;4990255;28;20042;-67
2024/01/14 09:54:57;;;;;;;8.07;0.80;;;;;;;;;;4983926;28;20556;-67
2024/01/14 09:57:24;;;;;;;2.30;0.80;;;;;;;;;;4971209;28;20043;-67
2024/01/14 09:59:50;;;;;;;5.10;1.15;;;;;;;;;;4970767;28;20049;-67
2024/01/14 10:02:17;;;;;;;5.15;1.10;;;;;;;;;;4972171;28;20146;-67
2024/01/14 10:04:43;;;;;;;5.70;1.30;;;;;;;;;;4990614;28;20423;-67
2024/01/14 10:07:09;;;;;;;4.53;1.00;;;;;;;;;;4982010;28;20043;-67
2024/01/14 10:09:36;;;;;;;6.80;1.13;;;;;;;;;;4970638;28;20053;-67
2024/01/14 10:12:02;;;;;;;6.15;1.33;;;;;;;;;;4976008;28;20043;-67
2024/01/14 10:14:28;;;;;;;6.30;0.98;;;;;;;;;;4971005;28;20051;-67
2024/01/14 10:16:58;;;;;;;5.50;1.50;;;;;;;;;;4970945;28;20035;-67
2024/01/14 10:19:24;;;;;;;2.25;0.98;;;;;;;;;;4970173;28;20050;-67
2024/01/14 10:21:52;;;;;;;4.68;0.90;;;;;;;;;;4970142;28;20073;-67
2024/01/14 10:24:19;;;;;;;3.88;1.10;;;;;;;;;;4970456;28;20046;-67
2024/01/14 10:26:45;;;;;;;6.20;1.02;;;;;;;;;;4978881;28;20527;-67
2024/01/14 10:29:11;;;;;;;2.97;1.00;;;;;;;;;;4970442;28;20046;-67
2024/01/14 10:31:38;;;;;;;5.70;1.30;;;;;;;;;;4952456;28;20405;-67
2024/01/14 10:34:04;;;;;;;1.77;0.82;;;;;;;;;;4970699;28;20520;-67
2024/01/14 10:36:33;;;;;;;3.58;1.00;;;;;;;;;;4969857;28;20497;-67
2024/01/14 10:39:01;;;;;;;5.35;1.05;;;;;;;;;;4970237;28;20031;-67
2024/01/14 10:41:27;;;;;;;4.15;1.40;;;;;;;;;;4970078;28;20042;-67
2024/01/14 10:43:54;;;;;;;4.95;1.40;;;;;;;;;;4970218;28;20537;-67
2024/01/14 10:46:20;;;;;;;5.40;1.15;;;;;;;;;;4970601;28;20061;-67
2024/01/14 10:48:49;;;;;;;3.78;1.30;;;;;;;;;;4969780;28;20108;-67
2024/01/14 10:51:17;;;;;;;4.00;1.52;;;;;;;;;;4969682;28;20038;-67
2024/01/14 10:54:00;;;;;;;4.68;1.67;;;;;;;;;;4968644;28;20054;-67
2024/01/14 10:56:34;;;;;;;6.22;1.45;;;;;;;;;;4986332;28;20053;-67
2024/01/14 10:59:03;;;;;;;4.30;1.45;;;;;;;;;;4983337;28;20047;-67
2024/01/14 11:01:32;;;;;;;4.78;1.50;;;;;;;;;;4969858;28;20046;-67
2024/01/14 11:04:01;;;;;;;5.90;1.33;;;;;;;;;;4969743;28;20425;-67
2024/01/14 11:06:27;;;;;;;3.53;1.90;;;;;;;;;;4969446;28;20074;-67
2024/01/14 11:08:53;;;;;;;5.07;1.75;;;;;;;;;;4970146;28;20081;-67
2024/01/14 11:11:22;;;;;;;6.68;2.03;;;;;;;;;;4969602;28;20035;-67
2024/01/14 11:13:53;;;;;;;7.60;2.05;;;;;;;;;;4969177;28;20047;-67
2024/01/14 11:16:22;;;;;;;10.02;2.33;;;;;;;;;;4969896;28;20047;-67
2024/01/14 11:18:48;;;;;;;9.27;1.85;;;;;;;;;;4971894;28;21468;-67
2024/01/14 11:21:23;;;;;;;7.10;1.90;;;;;;;;;;4978295;28;20070;-67
2024/01/14 11:23:49;;;;;;;4.97;2.08;;;;;;;;;;4979930;28;20524;-67
2024/01/14 11:26:16;;;;;;;8.23;2.13;;;;;;;;;;4979974;28;20049;-67
2024/01/14 11:28:45;;;;;;;4.95;1.40;;;;;;;;;;4968731;28;20043;-67
2024/01/14 11:31:11;;;;;;;5.20;1.63;;;;;;;;;;4967888;28;20074;-67
2024/01/14 11:33:42;;;;;;;5.57;1.20;;;;;;;;;;4968697;28;20043;-67
2024/01/14 11:36:09;;;;;;;5.15;1.23;;;;;;;;;;4981931;28;20085;-67
2024/01/14 11:38:35;;;;;;;4.82;1.38;;;;;;;;;;4987534;28;20097;-67
2024/01/14 11:41:20;;;;;;;7.97;1.38;;;;;;;;;;4968695;28;20045;-67
2024/01/14 11:43:46;;;;;;;5.05;1.30;;;;;;;;;;4968376;28;20039;-67
2024/01/14 11:46:32;;;;;;;3.90;1.42;;;;;;;;;;4969539;28;20493;-67
2024/01/14 11:48:58;;;;;;;5.53;1.65;;;;;;;;;;4952070;28;20057;-67
2024/01/14 11:51:25;;;;;;;3.25;1.70;;;;;;;;;;4968600;28;20408;-67
2024/01/14 11:53:51;;;;;;;7.85;1.80;;;;;;;;;;4968689;28;20042;-67
2024/01/14 11:56:29;;;;;;;6.30;1.52;;;;;;;;;;4982140;28;20666;-66
2024/01/14 11:58:58;;;;;;;3.92;1.20;;;;;;;;;;4985682;28;20036;-66
2024/01/14 12:01:25;;;;;;;7.20;1.52;;;;;;;;;;4951447;28;20114;-66
2024/01/14 12:04:01;;;;;;;8.15;2.33;;;;;;;;;;4968256;28;20061;-66
2024/01/14 12:06:28;;;;;;;4.88;0.75;;;;;;;;;;4968759;28;20093;-66
2024/01/14 12:09:00;;;;;;;2.88;0.80;;;;;;;;;;4951232;28;20050;-66
2024/01/14 12:11:26;;;;;;;5.10;0.80;;;;;;;;;;4970114;28;20110;-66
2024/01/14 12:13:52;;;;;;;3.53;1.30;;;;;;;;;;4968618;28;20039;-66
2024/01/14 12:16:18;;;;;;;7.15;1.95;;;;;;;;;;4982021;28;20042;-66
2024/01/14 12:18:45;;;;;;;9.45;4.22;;;;;;;;;;4969685;28;20042;-66
2024/01/14 12:21:11;;;;;;;8.20;5.38;;;;;;;;;;4978473;28;20038;-66
2024/01/14 12:23:37;;;;;;;8.50;4.20;;;;;;;;;;4979654;28;20104;-66
2024/01/14 12:26:06;;;;;;;11.25;4.90;;;;;;;;;;4968488;28;20039;-66
2024/01/14 12:28:33;;;;;;;9.88;5.13;;;;;;;;;;4954983;28;20498;-66
2024/01/14 12:30:59;;;;;;;8.13;5.18;;;;;;;;;;4968237;28;20066;-66
2024/01/14 12:33:26;;;;;;;10.30;5.10;;;;;;;;;;4968172;28;20130;-66
2024/01/14 12:35:52;;;;;;;8.55;4.75;;;;;;;;;;4977263;28;20043;-66
2024/01/14 12:38:18;;;;;;;9.65;4.70;;;;;;;;;;4986986;28;20046;-66
2024/01/14 12:40:44;;;;;;;9.80;5.05;;;;;;;;;;4971680;28;20063;-66
2024/01/14 12:43:12;;;;;;;10.43;5.38;;;;;;;;;;4967823;28;20174;-66
2024/01/14 12:45:45;;;;;;;14.57;6.25;;;;;;;;;;4951179;28;20512;-66
2024/01/14 12:48:11;;;;;;;13.32;6.55;;;;;;;;;;4968285;28;20383;-66
2024/01/14 12:50:37;;;;;;;11.15;5.30;;;;;;;;;;4967913;28;20047;-66
2024/01/14 12:53:10;;;;;;;13.50;5.65;;;;;;;;;;4964915;28;20078;-66
2024/01/14 12:55:36;;;;;;;14.93;6.35;;;;;;;;;;4963728;28;20644;-66
2024/01/14 12:58:03;;;;;;;15.25;5.60;;;;;;;;;;4968009;28;20034;-66
2024/01/14 13:00:31;;;;;;;16.60;7.60;;;;;;;;;;4950303;28;20042;-66
2024/01/14 13:02:57;;;;;;;14.02;7.60;;;;;;;;;;4967226;28;20441;-66
2024/01/14 13:05:24;;;;;;;12.75;6.85;;;;;;;;;;4934049;28;20065;-66
2024/01/14 13:07:51;;;;;;;14.38;6.93;;;;;;;;;;4954793;28;20061;-66
2024/01/14 13:10:17;;;;;;;12.70;6.10;;;;;;;;;;4967901;28;20047;-66
2024/01/14 13:12:43;;;;;;;15.15;6.57;;;;;;;;;;4967949;28;20041;-66
2024/01/14 13:15:10;;;;;;;14.93;6.53;;;;;;;;;;4969947;28;20485;-66
2024/01/14 13:17:37;;;;;;;18.83;7.25;;;;;;;;;;4987319;28;20089;-66
2024/01/14 13:20:03;;;;;;;15.23;6.78;;;;;;;;;;4978869;28;20039;-66
2024/01/14 13:22:29;;;;;;;14.48;6.75;;;;;;;;;;4989960;28;20092;-66
2024/01/14 13:24:55;;;;;;;11.15;6.53;;;;;;;;;;4974772;28;20043;-66
2024/01/14 13:27:22;;;;;;;14.20;5.85;;;;;;;;;;4971198;28;20049;-66
2024/01/14 13:29:48;;;;;;;11.98;5.72;;;;;;;;;;4971169;28;20055;-66
2024/01/14 13:32:16;;;;;;;17.33;7.47;;;;;;;;;;4971428;28;20042;-66
2024/01/14 13:34:42;;;;;;;12.43;5.40;;;;;;;;;;4971394;28;20420;-66
2024/01/14 13:37:08;;;;;;;13.90;5.60;;;;;;;;;;4971671;28;20038;-66
2024/01/14 13:39:35;;;;;;;11.15;5.82;;;;;;;;;;4971383;28;20046;-66
2024/01/14 13:42:01;;;;;;;15.07;5.18;;;;;;;;;;4971341;28;20405;-66
2024/01/14 13:44:27;;;;;;;15.45;5.22;;;;;;;;;;4960908;28;20560;-66
2024/01/14 13:46:53;;;;;;;12.05;5.43;;;;;;;;;;4970930;28;20256;-66
2024/01/14 13:49:19;;;;;;;8.77;4.32;;;;;;;;;;4971029;28;20046;-66
2024/01/14 13:51:46;;;;;;;10.38;4.57;;;;;;;;;;4977110;28;20516;-66
2024/01/14 13:54:12;;;;;;;10.68;4.05;;;;;;;;;;4990074;28;20054;-66
2024/01/14 13:56:39;;;;;;;7.20;3.42;;;;;;;;;;4977427;28;20114;-66
2024/01/14 13:59:05;;;;;;;10.15;4.00;;;;;;;;;;4970811;28;20050;-66
2024/01/14 14:01:31;;;;;;;10.27;3.40;;;;;;;;;;4970526;28;20035;-66
2024/01/14 14:03:58;;;;;;;12.23;3.90;;;;;;;;;;4970372;28;20053;-66
2024/01/14 14:06:24;;;;;;;12.48;4.50;;;;;;;;;;4971041;28;20046;-66
2024/01/14 14:08:52;;;;;;;8.70;3.45;;;;;;;;;;4971069;28;20515;-66
2024/01/14 14:11:19;;;;;;;7.65;3.03;;;;;;;;;;4972300;28;20145;-66
2024/01/14 14:13:45;;;;;;;6.97;2.67;;;;;;;;;;4970466;28;20449;-66
2024/01/14 14:16:11;;;;;;;8.20;2.13;;;;;;;;;;4979214;28;20040;-66
2024/01/14 14:18:37;;;;;;;8.15;2.05;;;;;;;;;;4990069;28;20034;-66
2024/01/14 14:21:03;;;;;;;7.40;1.45;;;;;;;;;;4983393;28;20101;-66
2024/01/14 14:23:31;;;;;;;9.80;1.98;;;;;;;;;;4987164;28;20047;-66
2024/01/14 14:25:57;;;;;;;3.88;1.23;;;;;;;;;;4976307;28;20034;-66
2024/01/14 14:28:23;;;;;;;7.28;1.35;;;;;;;;;;4979833;28;20049;-66
2024/01/14 14:30:49;;;;;;;10.80;1.60;;;;;;;;;;4970699;28;20074;-66
2024/01/14 14:33:15;;;;;;;7.10;1.60;;;;;;;;;;4969778;28;20497;-66